Briefing drone pour Annonay

Rechercher une autre localisation

Conditions de vol :


Nous sommes le : Dimanche 29 mai 2022
Il est 02:28 UTC (04:28 LT)

Lever de soleil : 03:32 UTC (05:32 LT)
Coucher de soleil : 19:44 UTC (21:44 LT)

Météo

L'essentiel des conditions de vol

VIGILANCE MÉTÉO FRANCE - Ardèche (07)
Pas de vigilances particulieres
CARTE TEMSI
CARTES DES FRONTS
METAR de LFMH
LFMH 290200Z AUTO VRB02KT CAVOK 06/03 Q1013

Date d'émission: 29/05/2022
Heure d'émission: 02:00 UTC
Vent: Variable 2 KT (4 km/h)
Visibilité horizontale: > 10 km
Plafond : Plafond et visibilité OK (CAVOK)
Température: 6 °C
Point de rosée: 3 °C
Humidité: 81%
Pression (QNH): 1013 hPa
TAF de LFMH
LFMH 161901Z 1619/1712 CNL

Conditions prévues :

Heure d'émission : Bulletin éffectué le 16 à 19:00 UTC
Prévision : Valide du 16 a 19:00 UTC au 17 a 12:00 UTC
Nuages : à 0ft (0 m)
WEBCAM POUR ANNONAY

Réglementation

Voler en sécurité

CARTES AERONAUTIQUE 1/500.000
CARTES VAC (LFMH)
SUP AIP




Chargement des AIP...
NOTAM (ANNONAY + Terrain à proximité / FIR )




Chargement des NOTAMS...
CONTACT PREFECTURE 07


Avertissement : Les données mises à disposition sont indicatives. Oxygène Drone ne pourra être tenu responsable de dégâts causés aux biens et aux personnes.